createdAt,value
2023-03-15T00:00:14.293Z,100227.75
2023-03-15T00:02:41.953Z,100231.22
2023-03-15T00:05:12.874Z,100238.63
2023-03-15T00:07:39.746Z,100244.06
2023-03-15T00:10:06.710Z,100253.78
2023-03-15T00:12:34.497Z,100253.19
2023-03-15T00:15:01.697Z,100254.13
2023-03-15T00:17:34.838Z,100257.88
2023-03-15T00:20:04.758Z,100263.28
2023-03-15T00:22:31.658Z,100270.16
2023-03-15T00:24:58.761Z,100278.72
2023-03-15T00:27:26.502Z,100288.00
2023-03-15T00:29:53.229Z,100292.44
2023-03-15T00:32:20.727Z,100299.22
2023-03-15T00:34:50.129Z,100307.44
2023-03-15T00:37:17.271Z,100309.69
2023-03-15T00:39:45.573Z,100309.25
2023-03-15T00:42:15.704Z,100305.13
2023-03-15T00:44:45.365Z,100309.06
2023-03-15T00:47:12.701Z,100314.81
2023-03-15T00:49:40.597Z,100312.44
2023-03-15T00:52:08.016Z,100313.22
2023-03-15T00:54:35.185Z,100312.31
2023-03-15T00:57:04.276Z,100319.31
2023-03-15T00:59:34.911Z,100313.03
2023-03-15T01:02:05.835Z,100320.44
2023-03-15T01:04:33.953Z,100320.94
2023-03-15T01:07:01.210Z,100315.84
2023-03-15T01:09:30.008Z,100320.50
2023-03-15T01:11:56.714Z,100323.72
2023-03-15T01:14:23.953Z,100324.91
2023-03-15T01:16:51.082Z,100328.44
2023-03-15T01:19:18.789Z,100333.06
2023-03-15T01:21:47.904Z,100337.22
2023-03-15T01:24:15.166Z,100339.88
2023-03-15T01:26:41.949Z,100338.44
2023-03-15T01:29:10.021Z,100345.03
2023-03-15T01:31:37.870Z,100351.38
2023-03-15T01:34:05.823Z,100352.59
2023-03-15T01:36:32.398Z,100355.56
2023-03-15T01:38:58.945Z,100356.97
2023-03-15T01:41:27.427Z,100347.84
2023-03-15T01:43:54.391Z,100351.38
2023-03-15T01:46:34.688Z,100355.75
2023-03-15T01:49:09.854Z,100350.31
2023-03-15T01:51:43.265Z,100343.91
2023-03-15T01:54:43.587Z,100359.72
2023-03-15T01:57:11.583Z,100363.38
2023-03-15T01:59:40.530Z,100368.09
2023-03-15T02:02:08.001Z,100374.81
2023-03-15T02:04:38.091Z,100376.00
2023-03-15T02:07:06.133Z,100390.44
2023-03-15T02:09:39.226Z,100393.34
2023-03-15T02:12:06.206Z,100397.03
2023-03-15T02:14:34.330Z,100402.31
2023-03-15T02:17:01.541Z,100401.66
2023-03-15T02:19:43.278Z,100409.28
2023-03-15T02:22:13.844Z,100411.59
2023-03-15T02:24:43.677Z,100408.97
2023-03-15T02:27:11.713Z,100414.03
2023-03-15T02:29:39.649Z,100411.78
2023-03-15T02:32:06.633Z,100409.88
2023-03-15T02:34:33.624Z,100415.28
2023-03-15T02:37:00.769Z,100415.47
2023-03-15T02:39:28.240Z,100424.84
2023-03-15T02:41:57.514Z,100437.50
2023-03-15T02:44:37.156Z,100437.41
2023-03-15T02:47:06.730Z,100433.09
2023-03-15T02:49:36.423Z,100435.59
2023-03-15T02:52:03.784Z,100433.56
2023-03-15T02:54:34.404Z,100442.53
2023-03-15T02:57:02.320Z,100445.44
2023-03-15T02:59:29.069Z,100439.94
2023-03-15T03:01:56.160Z,100453.75
2023-03-15T03:04:22.929Z,100463.28
2023-03-15T03:06:49.742Z,100470.16
2023-03-15T03:09:17.754Z,100477.34
2023-03-15T03:11:45.847Z,100489.84
2023-03-15T03:14:15.737Z,100494.00
2023-03-15T03:16:43.324Z,100505.50
2023-03-15T03:19:14.590Z,100505.28
2023-03-15T03:21:43.658Z,100522.44
2023-03-15T03:24:12.172Z,100521.41
2023-03-15T03:26:39.091Z,100519.94
2023-03-15T03:29:07.421Z,100519.59
2023-03-15T03:31:35.394Z,100518.69
2023-03-15T03:34:02.811Z,100529.50
2023-03-15T03:36:29.539Z,100532.88
2023-03-15T03:38:57.217Z,100537.09
2023-03-15T03:41:24.450Z,100539.69
2023-03-15T03:43:51.289Z,100537.28
2023-03-15T03:46:19.382Z,100532.13
2023-03-15T03:48:45.896Z,100548.13
2023-03-15T03:51:14.567Z,100549.31
2023-03-15T03:53:43.675Z,100551.19
2023-03-15T03:56:11.795Z,100555.81
2023-03-15T03:58:38.557Z,100564.63
2023-03-15T04:01:05.631Z,100568.31
2023-03-15T04:03:32.351Z,100574.50
2023-03-15T04:06:00.071Z,100571.88
2023-03-15T04:08:27.083Z,100583.50
2023-03-15T04:10:54.878Z,100579.56
2023-03-15T04:13:21.931Z,100584.84
2023-03-15T04:15:48.626Z,100548.88
2023-03-15T04:18:15.464Z,100596.63
2023-03-15T04:20:47.005Z,100599.44
2023-03-15T04:23:15.641Z,100587.84
2023-03-15T04:25:42.594Z,100587.22
2023-03-15T04:28:10.733Z,100571.41
2023-03-15T04:30:37.651Z,100579.84
2023-03-15T04:33:05.452Z,100582.63
2023-03-15T04:35:36.062Z,100588.53
2023-03-15T04:38:04.157Z,100582.13
2023-03-15T04:40:35.110Z,100583.75
2023-03-15T04:43:05.747Z,100587.25
2023-03-15T04:45:33.591Z,100586.88
2023-03-15T04:48:02.421Z,100602.06
2023-03-15T04:50:30.941Z,100604.09
2023-03-15T04:52:58.105Z,100613.41
2023-03-15T04:55:24.693Z,100617.09
2023-03-15T04:57:51.451Z,100619.09
2023-03-15T05:00:18.706Z,100615.44
2023-03-15T05:02:54.715Z,100618.00
2023-03-15T05:05:24.289Z,100617.38
2023-03-15T05:07:51.242Z,100620.31
2023-03-15T05:10:19.543Z,100616.06
2023-03-15T05:12:46.025Z,100621.16
2023-03-15T05:15:13.169Z,100625.59
2023-03-15T05:17:40.024Z,100632.09
2023-03-15T05:20:13.719Z,100634.91
2023-03-15T05:22:41.199Z,100639.31
2023-03-15T05:25:08.949Z,100646.03
2023-03-15T05:27:37.141Z,100651.03
2023-03-15T05:30:05.184Z,100662.38
2023-03-15T05:32:35.910Z,100677.28
2023-03-15T05:35:03.736Z,100672.03
2023-03-15T05:37:32.649Z,100671.56
2023-03-15T05:40:01.652Z,100679.06
2023-03-15T05:42:29.629Z,100679.25
2023-03-15T05:44:57.163Z,100697.44
2023-03-15T05:47:24.285Z,100698.34
2023-03-15T05:49:50.913Z,100716.41
2023-03-15T05:52:19.387Z,100714.72
2023-03-15T05:54:46.481Z,100715.78
2023-03-15T05:57:14.603Z,100724.00
2023-03-15T05:59:43.090Z,100731.81
2023-03-15T06:02:12.431Z,100727.72
2023-03-15T06:04:40.175Z,100741.91
2023-03-15T06:07:07.010Z,100739.25
2023-03-15T06:09:33.624Z,100746.88
2023-03-15T06:12:01.194Z,100759.84
2023-03-15T06:14:28.330Z,100763.91
2023-03-15T06:16:56.121Z,100763.56
2023-03-15T06:19:23.574Z,100758.13
2023-03-15T06:21:52.068Z,100770.53
2023-03-15T06:24:18.988Z,100768.03
2023-03-15T06:26:45.961Z,100766.88
2023-03-15T06:29:12.521Z,100772.84
2023-03-15T06:31:38.989Z,100770.94
2023-03-15T06:34:06.244Z,100774.59
2023-03-15T06:36:33.053Z,100782.06
2023-03-15T06:39:03.015Z,100785.41
2023-03-15T06:41:29.528Z,100793.41
2023-03-15T06:43:56.121Z,100792.34
2023-03-15T06:46:23.380Z,100790.66
2023-03-15T06:48:50.211Z,100787.25
2023-03-15T06:51:17.181Z,100804.78
2023-03-15T06:53:44.942Z,100799.50
2023-03-15T06:56:12.914Z,100803.69
2023-03-15T06:58:40.083Z,100818.63
2023-03-15T07:01:08.131Z,100802.72
2023-03-15T07:03:34.874Z,100808.91
2023-03-15T07:06:01.633Z,100811.28
2023-03-15T07:08:28.510Z,100813.16
2023-03-15T07:10:55.157Z,100816.97
2023-03-15T07:13:23.405Z,100820.59
2023-03-15T07:15:54.101Z,100827.25
2023-03-15T07:18:21.072Z,100832.38
2023-03-15T07:20:49.255Z,100861.16
2023-03-15T07:23:16.295Z,100882.75
2023-03-15T07:25:54.274Z,100906.06
2023-03-15T07:28:21.603Z,100924.63
2023-03-15T07:30:54.478Z,100922.03
2023-03-15T07:33:22.602Z,100927.28
2023-03-15T07:35:50.250Z,100920.88
2023-03-15T07:38:17.495Z,100926.56
2023-03-15T07:40:44.005Z,100927.66
2023-03-15T07:43:10.797Z,100923.63
2023-03-15T07:45:37.801Z,100920.72
2023-03-15T07:48:04.538Z,100917.81
2023-03-15T07:50:30.983Z,100914.22
2023-03-15T07:52:57.477Z,100905.81
2023-03-15T07:55:24.141Z,100898.84
2023-03-15T07:57:53.322Z,100903.88
2023-03-15T08:00:20.969Z,100907.50
2023-03-15T08:02:48.955Z,100908.66
2023-03-15T08:05:19.947Z,100909.09
2023-03-15T08:07:47.449Z,100906.19
2023-03-15T08:10:15.599Z,100897.41
2023-03-15T08:12:43.113Z,100904.41
2023-03-15T08:15:11.383Z,100910.00
2023-03-15T08:17:39.870Z,100909.09
2023-03-15T08:20:08.572Z,100908.16
2023-03-15T08:22:36.129Z,100909.31
2023-03-15T08:25:04.558Z,100913.63
2023-03-15T08:27:31.219Z,100919.66
2023-03-15T08:29:58.593Z,100915.44
2023-03-15T08:32:25.120Z,100915.69
2023-03-15T08:34:53.165Z,100914.91
2023-03-15T08:37:20.346Z,100917.28
2023-03-15T08:39:47.156Z,100921.28
2023-03-15T08:42:14.035Z,100928.81
2023-03-15T08:44:40.666Z,100938.81
2023-03-15T08:47:08.290Z,100933.53
2023-03-15T08:49:35.092Z,100925.59
2023-03-15T08:52:01.974Z,100933.38
2023-03-15T08:54:28.600Z,100943.56
2023-03-15T08:56:55.106Z,100958.03
2023-03-15T08:59:31.275Z,100971.34
2023-03-15T09:02:00.135Z,100960.72
2023-03-15T09:04:27.031Z,100965.06
2023-03-15T09:06:54.006Z,100972.56
2023-03-15T09:09:20.828Z,100997.88
2023-03-15T09:11:47.513Z,101001.84
2023-03-15T09:14:13.966Z,101014.41
2023-03-15T09:16:40.860Z,101017.63
2023-03-15T09:19:07.786Z,101027.53
2023-03-15T09:21:34.248Z,101015.03
2023-03-15T09:24:01.059Z,101009.19
2023-03-15T09:26:29.564Z,101009.75
2023-03-15T09:28:56.373Z,101017.38
2023-03-15T09:31:25.401Z,101017.56
2023-03-15T09:33:52.387Z,101024.44
2023-03-15T09:36:21.071Z,101010.91
2023-03-15T09:38:49.558Z,101026.34
2023-03-15T09:41:34.748Z,101027.81
2023-03-15T09:44:04.350Z,101025.53
2023-03-15T09:46:34.101Z,101026.94
2023-03-15T09:49:06.022Z,101018.53
2023-03-15T09:51:35.348Z,101014.25
2023-03-15T09:54:05.961Z,101014.72
2023-03-15T09:56:38.614Z,101017.59
2023-03-15T09:59:06.153Z,101024.50
2023-03-15T10:01:36.555Z,101019.25
2023-03-15T10:04:08.187Z,101010.94
2023-03-15T10:06:37.776Z,101019.53
2023-03-15T10:09:12.953Z,101018.69
2023-03-15T10:11:58.876Z,101020.53
2023-03-15T10:14:45.086Z,101015.31
2023-03-15T10:17:13.901Z,101026.56
2023-03-15T10:19:45.903Z,101026.50
2023-03-15T10:22:25.685Z,101020.69
2023-03-15T10:24:59.487Z,101027.03
2023-03-15T10:27:34.481Z,101016.25
2023-03-15T10:30:01.594Z,101018.50
2023-03-15T10:32:50.383Z,101017.69
2023-03-15T10:35:27.760Z,101026.84
2023-03-15T10:38:03.006Z,101037.25
2023-03-15T10:40:46.654Z,101026.56
2023-03-15T10:43:21.047Z,101028.31
2023-03-15T10:45:58.929Z,101022.28
2023-03-15T10:48:27.322Z,101027.44
2023-03-15T10:50:58.363Z,101029.03
2023-03-15T10:53:25.623Z,101028.72
2023-03-15T10:56:02.538Z,101035.19
2023-03-15T10:58:39.109Z,101033.41
2023-03-15T11:01:10.514Z,101034.66
2023-03-15T11:03:39.039Z,101026.44
2023-03-15T11:06:19.467Z,101033.97
2023-03-15T11:08:46.041Z,101031.88
2023-03-15T11:11:12.501Z,101037.19
2023-03-15T11:13:43.015Z,101045.19
2023-03-15T11:16:15.880Z,101047.50
2023-03-15T11:18:55.986Z,101046.81
2023-03-15T11:21:24.032Z,101050.84
2023-03-15T11:23:51.685Z,101055.41
2023-03-15T11:26:33.400Z,101049.00
2023-03-15T11:29:13.435Z,101049.44
2023-03-15T11:31:40.118Z,101039.69
2023-03-15T11:34:09.291Z,101051.66
2023-03-15T11:36:40.202Z,101056.19
2023-03-15T11:39:09.036Z,101064.13
2023-03-15T11:41:40.960Z,101058.34
2023-03-15T11:44:16.506Z,101063.19
2023-03-15T11:46:45.778Z,101058.72
2023-03-15T11:49:13.510Z,101057.00
2023-03-15T11:51:40.035Z,101053.88
2023-03-15T11:54:11.328Z,101060.03
2023-03-15T11:56:44.127Z,101067.84
2023-03-15T11:59:16.359Z,101098.88
2023-03-15T12:01:47.104Z,101088.59
2023-03-15T12:04:32.441Z,101097.75
2023-03-15T12:07:04.500Z,101098.53
2023-03-15T12:09:37.697Z,101107.91
2023-03-15T12:12:27.574Z,101101.75
2023-03-15T12:15:13.656Z,101106.53
2023-03-15T12:17:43.462Z,101107.38
2023-03-15T12:20:19.551Z,101100.34
2023-03-15T12:22:49.047Z,101100.41
2023-03-15T12:25:16.922Z,101099.50
2023-03-15T12:27:47.720Z,101106.59
2023-03-15T12:30:23.004Z,101101.28
2023-03-15T12:32:52.798Z,101103.09
2023-03-15T12:35:21.620Z,101096.72
2023-03-15T12:37:49.155Z,101101.38
2023-03-15T12:40:16.156Z,101096.72
2023-03-15T12:42:46.755Z,101088.69
2023-03-15T12:45:16.825Z,101101.88
2023-03-15T12:47:50.904Z,101103.59
2023-03-15T12:50:37.108Z,101100.63
2023-03-15T12:53:07.253Z,101096.84
2023-03-15T12:55:35.713Z,101100.03
2023-03-15T12:58:04.102Z,101108.53
2023-03-15T13:00:33.678Z,101104.31
2023-03-15T13:03:08.958Z,101117.59
2023-03-15T13:06:03.471Z,101120.31
2023-03-15T13:08:31.866Z,101132.75
2023-03-15T13:11:17.260Z,101126.41
2023-03-15T13:13:53.348Z,101147.03
2023-03-15T13:16:39.051Z,101169.03
2023-03-15T13:19:24.387Z,101143.91
2023-03-15T13:22:02.208Z,101143.78
2023-03-15T13:24:37.822Z,101144.34
2023-03-15T13:27:08.758Z,101146.72
2023-03-15T13:29:35.327Z,101136.53
2023-03-15T13:32:07.271Z,101134.59
2023-03-15T13:34:35.115Z,101146.75
2023-03-15T13:37:04.665Z,101143.25
2023-03-15T13:39:32.372Z,101153.81
2023-03-15T13:41:58.891Z,101144.34
2023-03-15T13:44:26.143Z,101148.09
2023-03-15T13:46:53.495Z,101147.97
2023-03-15T13:49:23.719Z,101150.72
2023-03-15T13:51:52.284Z,101143.84
2023-03-15T13:54:23.809Z,101139.84
2023-03-15T13:56:56.837Z,101139.91
2023-03-15T13:59:32.939Z,101138.16
2023-03-15T14:02:00.193Z,101153.00
2023-03-15T14:04:27.059Z,101164.88
2023-03-15T14:07:04.790Z,101162.75
2023-03-15T14:09:31.422Z,101162.75
2023-03-15T14:12:05.842Z,101170.56
2023-03-15T14:14:36.090Z,101161.09
2023-03-15T14:17:08.718Z,101165.13
2023-03-15T14:19:36.087Z,101184.53
2023-03-15T14:22:15.789Z,101196.00
2023-03-15T14:24:43.513Z,101210.31
2023-03-15T14:27:30.702Z,101216.50
2023-03-15T14:30:01.812Z,101204.31
2023-03-15T14:32:30.222Z,101192.94
2023-03-15T14:35:08.023Z,101182.56
2023-03-15T14:37:43.098Z,101181.84
2023-03-15T14:40:23.334Z,101182.50
2023-03-15T14:42:50.822Z,101170.00
2023-03-15T14:45:18.500Z,101189.69
2023-03-15T14:47:56.035Z,101185.88
2023-03-15T14:50:24.108Z,101184.53
2023-03-15T14:52:51.522Z,101186.59
2023-03-15T14:55:27.741Z,101186.50
2023-03-15T14:57:54.244Z,101186.31
2023-03-15T15:00:20.843Z,101188.72
2023-03-15T15:02:55.654Z,101186.53
2023-03-15T15:05:27.186Z,101188.50
2023-03-15T15:07:56.753Z,101188.84
2023-03-15T15:10:24.537Z,101188.75
2023-03-15T15:13:04.853Z,101200.09
2023-03-15T15:15:43.706Z,101193.19
2023-03-15T15:18:14.190Z,101202.69
2023-03-15T15:20:42.233Z,101213.16
2023-03-15T15:23:19.721Z,101218.13
2023-03-15T15:25:48.135Z,101222.78
2023-03-15T15:28:27.250Z,101252.69
2023-03-15T15:31:02.278Z,101263.81
2023-03-15T15:33:28.749Z,101264.00
2023-03-15T15:35:57.959Z,101267.78
2023-03-15T15:38:28.420Z,101277.22
2023-03-15T15:40:54.846Z,101262.53
2023-03-15T15:43:22.456Z,101265.78
2023-03-15T15:45:49.736Z,101276.34
2023-03-15T15:48:19.428Z,101276.44
2023-03-15T15:50:47.490Z,101252.13
2023-03-15T15:53:18.294Z,101243.31
2023-03-15T15:55:47.786Z,101254.28
2023-03-15T15:58:15.294Z,101244.34
2023-03-15T16:00:41.975Z,101249.44
2023-03-15T16:03:17.460Z,101248.72
2023-03-15T16:05:44.517Z,101247.22
2023-03-15T16:08:22.383Z,101244.97
2023-03-15T16:10:50.476Z,101246.53
2023-03-15T16:13:18.675Z,101242.91
2023-03-15T16:15:47.059Z,101247.44
2023-03-15T16:18:14.514Z,101260.44
2023-03-15T16:20:43.333Z,101261.72
2023-03-15T16:23:16.044Z,101263.31
2023-03-15T16:25:44.891Z,101276.56
2023-03-15T16:28:13.633Z,101269.03
2023-03-15T16:30:41.075Z,101267.69
2023-03-15T16:33:18.058Z,101267.63
2023-03-15T16:35:45.827Z,101277.06
2023-03-15T16:38:15.929Z,101288.91
2023-03-15T16:40:48.058Z,101289.75
2023-03-15T16:43:15.241Z,101288.16
2023-03-15T16:45:42.618Z,101291.25
2023-03-15T16:48:10.054Z,101301.50
2023-03-15T16:50:40.016Z,101298.78
2023-03-15T16:53:11.400Z,101310.94
2023-03-15T16:55:38.651Z,101309.22
2023-03-15T16:58:13.731Z,101323.78
2023-03-15T17:00:44.637Z,101322.59
2023-03-15T17:03:29.263Z,101328.22
2023-03-15T17:05:57.092Z,101340.53
2023-03-15T17:08:28.277Z,101336.53
2023-03-15T17:10:54.876Z,101341.41
2023-03-15T17:13:27.632Z,101352.44
2023-03-15T17:15:59.016Z,101351.16
2023-03-15T17:18:28.883Z,101351.84
2023-03-15T17:20:58.427Z,101363.75
2023-03-15T17:23:26.540Z,101356.47
2023-03-15T17:26:09.469Z,101363.03
2023-03-15T17:28:37.452Z,101359.91
2023-03-15T17:31:23.990Z,101370.22
2023-03-15T17:33:55.169Z,101380.22
2023-03-15T17:36:25.648Z,101371.59
2023-03-15T17:38:55.045Z,101377.78
2023-03-15T17:41:32.486Z,101377.19
2023-03-15T17:44:00.440Z,101388.03
2023-03-15T17:46:31.213Z,101381.91
2023-03-15T17:49:00.101Z,101381.84
2023-03-15T17:51:36.832Z,101385.69
2023-03-15T17:54:13.022Z,101378.88
2023-03-15T17:56:41.590Z,101401.56
2023-03-15T17:59:11.007Z,101397.13
2023-03-15T18:01:47.151Z,101399.56
2023-03-15T18:04:17.516Z,101397.97
2023-03-15T18:06:46.454Z,101401.25
2023-03-15T18:09:16.543Z,101409.63
2023-03-15T18:11:46.074Z,101408.75
2023-03-15T18:14:24.811Z,101407.75
2023-03-15T18:16:54.607Z,101407.00
2023-03-15T18:19:21.984Z,101412.03
2023-03-15T18:21:49.916Z,101410.41
2023-03-15T18:24:17.590Z,101413.38
2023-03-15T18:26:45.440Z,101419.50
2023-03-15T18:29:12.757Z,101417.00
2023-03-15T18:31:40.957Z,101422.06
2023-03-15T18:34:17.532Z,101424.53
2023-03-15T18:36:45.813Z,101427.06
2023-03-15T18:39:13.358Z,101424.81
2023-03-15T18:41:40.628Z,101432.41
2023-03-15T18:44:08.101Z,101431.81
2023-03-15T18:46:36.830Z,101428.44
2023-03-15T18:49:07.735Z,101433.06
2023-03-15T18:51:35.469Z,101442.31
2023-03-15T18:54:03.778Z,101440.16
2023-03-15T18:56:34.741Z,101438.75
2023-03-15T18:59:02.880Z,101440.97
2023-03-15T19:01:30.564Z,101437.38
2023-03-15T19:03:58.824Z,101439.31
2023-03-15T19:06:27.395Z,101449.41
2023-03-15T19:08:55.430Z,101445.63
2023-03-15T19:11:24.462Z,101448.53
2023-03-15T19:14:04.628Z,101443.69
2023-03-15T19:16:32.406Z,101446.63
2023-03-15T19:18:59.829Z,101451.50
2023-03-15T19:21:30.259Z,101446.06
2023-03-15T19:23:58.331Z,101450.78
2023-03-15T19:26:26.732Z,101442.66
2023-03-15T19:28:55.417Z,101446.75
2023-03-15T19:31:24.064Z,101442.41
2023-03-15T19:33:51.378Z,101448.38
2023-03-15T19:36:20.096Z,101445.63
2023-03-15T19:38:56.430Z,101449.41
2023-03-15T19:41:23.848Z,101454.59
2023-03-15T19:43:53.205Z,101455.81
2023-03-15T19:46:20.895Z,101447.44
2023-03-15T19:48:48.553Z,101455.84
2023-03-15T19:51:17.501Z,101456.13
2023-03-15T19:53:44.926Z,101459.19
2023-03-15T19:56:12.611Z,101457.50
2023-03-15T19:58:41.336Z,101462.25
2023-03-15T20:01:09.893Z,101467.72
2023-03-15T20:03:40.752Z,101475.97
2023-03-15T20:06:14.855Z,101474.59
2023-03-15T20:08:43.326Z,101472.63
2023-03-15T20:11:15.761Z,101467.56
2023-03-15T20:13:45.051Z,101470.94
2023-03-15T20:16:13.804Z,101477.66
2023-03-15T20:18:41.284Z,101486.13
2023-03-15T20:21:08.353Z,101486.56
2023-03-15T20:23:37.360Z,101487.69
2023-03-15T20:26:11.589Z,101487.00
2023-03-15T20:28:39.765Z,101491.91
2023-03-15T20:31:16.958Z,101490.63
2023-03-15T20:33:44.247Z,101495.63
2023-03-15T20:36:11.529Z,101500.28
2023-03-15T20:38:39.372Z,101506.25
2023-03-15T20:41:06.955Z,101503.91
2023-03-15T20:43:34.863Z,101504.00
2023-03-15T20:46:04.433Z,101502.78
2023-03-15T20:48:37.268Z,101504.13
2023-03-15T20:51:05.448Z,101511.59
2023-03-15T20:53:35.600Z,101511.97
2023-03-15T20:56:04.148Z,101515.28
2023-03-15T20:58:31.808Z,101512.47
2023-03-15T21:01:08.008Z,101516.50
2023-03-15T21:03:36.074Z,101515.19
2023-03-15T21:06:04.932Z,101519.91
2023-03-15T21:08:32.495Z,101526.25
2023-03-15T21:11:08.075Z,101517.06
2023-03-15T21:13:35.160Z,101523.50
2023-03-15T21:16:04.597Z,101526.50
2023-03-15T21:18:40.472Z,101521.63
2023-03-15T21:21:08.198Z,101523.72
2023-03-15T21:23:43.336Z,101521.44
2023-03-15T21:26:11.506Z,101523.09
2023-03-15T21:28:40.097Z,101525.72
2023-03-15T21:31:07.388Z,101524.06
2023-03-15T21:33:34.501Z,101523.66
2023-03-15T21:36:30.576Z,101526.38
2023-03-15T21:38:57.498Z,101534.31
2023-03-15T21:41:25.401Z,101522.75
2023-03-15T21:43:52.002Z,101529.84
2023-03-15T21:46:22.329Z,101534.38
2023-03-15T21:48:49.549Z,101533.94
2023-03-15T21:51:36.849Z,101538.66
2023-03-15T21:54:05.068Z,101537.06
2023-03-15T21:56:32.885Z,101537.75
2023-03-15T21:58:59.679Z,101535.09
2023-03-15T22:01:35.151Z,101540.50
2023-03-15T22:04:02.482Z,101537.19
2023-03-15T22:06:30.185Z,101535.72
2023-03-15T22:09:00.449Z,101541.75
2023-03-15T22:11:28.644Z,101546.38
2023-03-15T22:13:55.985Z,101541.25
2023-03-15T22:16:23.720Z,101544.94
2023-03-15T22:18:56.496Z,101546.03
2023-03-15T22:21:24.204Z,101541.59
2023-03-15T22:23:51.598Z,101540.94
2023-03-15T22:26:22.619Z,101552.06
2023-03-15T22:28:49.979Z,101547.34
2023-03-15T22:31:17.195Z,101554.97
2023-03-15T22:33:44.563Z,101550.84
2023-03-15T22:36:19.748Z,101549.03
2023-03-15T22:38:50.289Z,101549.13
2023-03-15T22:41:20.055Z,101544.84
2023-03-15T22:43:47.294Z,101551.09
2023-03-15T22:46:15.559Z,101549.03
2023-03-15T22:48:43.504Z,101552.53
2023-03-15T22:51:14.599Z,101554.53
2023-03-15T22:53:42.978Z,101554.00
2023-03-15T22:56:10.969Z,101552.16
2023-03-15T22:58:39.237Z,101552.97
2023-03-15T23:01:06.728Z,101549.56
2023-03-15T23:03:34.149Z,101554.13
2023-03-15T23:06:04.155Z,101555.53
2023-03-15T23:08:35.073Z,101558.06
2023-03-15T23:11:02.633Z,101559.09
2023-03-15T23:13:32.298Z,101559.50
2023-03-15T23:16:04.473Z,101564.41
2023-03-15T23:18:37.079Z,101564.66
2023-03-15T23:21:05.668Z,101573.03
2023-03-15T23:23:36.540Z,101572.88
2023-03-15T23:26:04.792Z,101583.34
2023-03-15T23:28:32.759Z,101586.66
2023-03-15T23:31:04.599Z,101581.47
2023-03-15T23:33:37.205Z,101587.84
2023-03-15T23:36:09.753Z,101593.34
2023-03-15T23:38:37.682Z,101593.16
2023-03-15T23:41:05.966Z,101596.25
2023-03-15T23:43:34.710Z,101596.38
2023-03-15T23:46:05.129Z,101606.03
2023-03-15T23:48:35.756Z,101600.47
2023-03-15T23:51:03.384Z,101602.31
2023-03-15T23:53:31.076Z,101603.50
2023-03-15T23:55:59.408Z,101603.00
2023-03-15T23:58:27.914Z,101607.25
